Time;durP1;ratioP1;P1;durP2;ratioP2;P2;SDS_P1;SDS_P2;PMS_P1;PMS_P2;Temp;Humidity;BMP_temperature;BMP_pressure;BME280_temperature;BME280_humidity;BME280_pressure;Samples;Min_cycle;Max_cycle;Signal;HPM_P1;HPM_P2
2022/05/21 00:00:32;;;;;;;1999.90;999.90;;;;;;;;;;5094322;27;20403;-74
2022/05/21 00:03:00;;;;;;;1999.90;999.90;;;;;;;;;;5097715;27;20875;-74
2022/05/21 00:05:29;;;;;;;1999.90;999.90;;;;;;;;;;5098649;27;20538;-74
2022/05/21 00:07:57;;;;;;;1999.90;999.90;;;;;;;;;;5091278;27;20387;-74
2022/05/21 00:10:26;;;;;;;1999.90;999.90;;;;;;;;;;5094310;27;20403;-74
2022/05/21 00:12:54;;;;;;;1999.90;999.90;;;;;;;;;;5097750;27;20406;-74
2022/05/21 00:15:24;;;;;;;1999.90;999.90;;;;;;;;;;5098727;27;20477;-74
2022/05/21 00:17:52;;;;;;;1999.90;999.90;;;;;;;;;;5098747;27;20510;-74
2022/05/21 00:23:10;;;;;;;1999.90;999.90;;;;;;;;;;5093879;27;21126;-74
2022/05/21 00:25:39;;;;;;;1999.90;999.90;;;;;;;;;;5086276;27;20415;-74
2022/05/21 00:28:06;;;;;;;1999.90;999.90;;;;;;;;;;5098873;27;21004;-74
2022/05/21 00:30:34;;;;;;;1999.90;999.90;;;;;;;;;;5098472;27;20495;-74
2022/05/21 00:33:01;;;;;;;1999.90;999.90;;;;;;;;;;5077596;27;20378;-74
2022/05/21 00:35:29;;;;;;;1999.90;999.90;;;;;;;;;;5097385;27;20498;-74
2022/05/21 00:37:57;;;;;;;1999.90;999.90;;;;;;;;;;5092262;27;20438;-74
2022/05/21 00:40:24;;;;;;;1999.90;999.90;;;;;;;;;;5094902;27;20839;-74
2022/05/21 00:42:54;;;;;;;1999.90;999.90;;;;;;;;;;5084608;27;20480;-74
2022/05/21 00:45:21;;;;;;;1999.90;999.90;;;;;;;;;;5087163;27;20472;-73
2022/05/21 00:47:49;;;;;;;1999.90;999.90;;;;;;;;;;5094951;27;20437;-74
2022/05/21 00:50:18;;;;;;;1999.90;999.90;;;;;;;;;;5092685;27;20909;-74
2022/05/21 00:52:46;;;;;;;1999.90;999.90;;;;;;;;;;5093069;27;20445;-74
2022/05/21 00:55:16;;;;;;;1999.90;999.90;;;;;;;;;;5089478;27;20895;-73
2022/05/21 00:57:45;;;;;;;1999.90;999.90;;;;;;;;;;5089897;27;20408;-74
2022/05/21 01:00:16;;;;;;;1999.90;999.90;;;;;;;;;;5092633;27;20473;-73
2022/05/21 01:02:47;;;;;;;1999.90;999.90;;;;;;;;;;5094827;27;20473;-74
2022/05/21 01:05:15;;;;;;;1999.90;999.90;;;;;;;;;;5099024;27;20813;-73
2022/05/21 01:07:44;;;;;;;1999.90;999.90;;;;;;;;;;5096816;27;21024;-73
2022/05/21 01:10:12;;;;;;;1999.90;999.90;;;;;;;;;;5093054;27;20407;-73
2022/05/21 01:12:43;;;;;;;1999.90;999.90;;;;;;;;;;5094267;27;20395;-73
2022/05/21 01:15:12;;;;;;;1999.90;999.90;;;;;;;;;;5097232;27;20508;-74
2022/05/21 01:17:41;;;;;;;1999.90;999.90;;;;;;;;;;5095451;27;20480;-74
2022/05/21 01:20:11;;;;;;;1999.90;999.90;;;;;;;;;;5095323;27;20886;-73
2022/05/21 01:22:42;;;;;;;1999.90;999.90;;;;;;;;;;5074595;28;20433;-73
2022/05/21 01:25:10;;;;;;;1999.90;999.90;;;;;;;;;;5095187;27;20398;-73
2022/05/21 01:27:38;;;;;;;1999.90;999.90;;;;;;;;;;5093811;27;20484;-73
2022/05/21 01:30:06;;;;;;;1999.90;999.90;;;;;;;;;;5096590;27;20502;-73
2022/05/21 01:32:34;;;;;;;1999.90;999.90;;;;;;;;;;5091837;27;20480;-73
2022/05/21 01:35:02;;;;;;;1999.90;999.90;;;;;;;;;;5095362;27;20391;-74
2022/05/21 01:37:30;;;;;;;1999.90;999.90;;;;;;;;;;5091817;27;20515;-74
2022/05/21 01:39:59;;;;;;;1999.90;999.90;;;;;;;;;;5093449;27;20563;-73
2022/05/21 01:42:27;;;;;;;1999.90;999.90;;;;;;;;;;5094947;27;20391;-74
2022/05/21 01:44:53;;;;;;;1999.90;999.90;;;;;;;;;;5099633;27;21160;-73
2022/05/21 01:47:21;;;;;;;1999.90;999.90;;;;;;;;;;5100298;27;20403;-74
2022/05/21 01:49:49;;;;;;;1999.90;999.90;;;;;;;;;;5099218;27;20530;-74
2022/05/21 01:52:17;;;;;;;1999.90;999.90;;;;;;;;;;5097268;27;20966;-74
2022/05/21 01:54:44;;;;;;;1999.90;999.90;;;;;;;;;;5100046;27;20411;-74
2022/05/21 01:57:13;;;;;;;1999.90;999.90;;;;;;;;;;5078915;27;20917;-72
2022/05/21 01:59:41;;;;;;;1999.90;999.90;;;;;;;;;;5098484;27;20411;-72
2022/05/21 02:02:09;;;;;;;1999.90;999.90;;;;;;;;;;5089273;27;20406;-74
2022/05/21 02:04:37;;;;;;;1999.90;999.90;;;;;;;;;;5100635;27;20484;-73
2022/05/21 02:07:04;;;;;;;1999.90;999.90;;;;;;;;;;5097034;27;20451;-74
2022/05/21 02:09:32;;;;;;;1999.90;999.90;;;;;;;;;;5098678;27;20423;-75
2022/05/21 02:12:00;;;;;;;1999.90;999.90;;;;;;;;;;5098409;27;20419;-72
2022/05/21 02:14:29;;;;;;;1999.90;999.90;;;;;;;;;;5101214;27;20492;-75
2022/05/21 02:16:57;;;;;;;1999.90;999.90;;;;;;;;;;5098771;27;20402;-73
2022/05/21 02:19:25;;;;;;;1999.90;999.90;;;;;;;;;;5099162;27;20442;-74
2022/05/21 02:21:52;;;;;;;1999.90;999.90;;;;;;;;;;5075611;28;20366;-73
2022/05/21 02:24:20;;;;;;;1999.90;999.90;;;;;;;;;;5092084;27;20526;-73
2022/05/21 02:26:47;;;;;;;1999.90;999.90;;;;;;;;;;5092940;27;20403;-73
2022/05/21 02:29:15;;;;;;;1999.90;999.90;;;;;;;;;;5091222;27;20453;-73
2022/05/21 02:31:45;;;;;;;1999.90;999.90;;;;;;;;;;5073876;28;21184;-73
2022/05/21 02:34:12;;;;;;;1999.90;999.90;;;;;;;;;;5100979;27;20449;-73
2022/05/21 02:39:29;;;;;;;1999.90;999.90;;;;;;;;;;5100164;27;20525;-73
2022/05/21 02:41:58;;;;;;;1999.90;999.90;;;;;;;;;;5095184;27;20416;-73
2022/05/21 02:44:25;;;;;;;1999.90;999.90;;;;;;;;;;5098537;27;21415;-74
2022/05/21 02:46:54;;;;;;;1999.90;999.90;;;;;;;;;;5100650;27;20355;-73
2022/05/21 02:49:22;;;;;;;1999.90;999.90;;;;;;;;;;5101425;27;20490;-73
2022/05/21 02:51:49;;;;;;;1999.90;999.90;;;;;;;;;;5100319;27;20387;-73
2022/05/21 02:54:18;;;;;;;1999.90;999.90;;;;;;;;;;5092377;27;20427;-73
2022/05/21 02:56:48;;;;;;;1999.90;999.90;;;;;;;;;;5099056;27;20478;-73
2022/05/21 02:59:15;;;;;;;1999.90;999.90;;;;;;;;;;5094839;27;20494;-73
2022/05/21 03:01:43;;;;;;;1999.90;999.90;;;;;;;;;;5098063;27;20466;-74
2022/05/21 03:04:12;;;;;;;1999.90;999.90;;;;;;;;;;5097772;27;20413;-74
2022/05/21 03:06:40;;;;;;;1999.90;999.90;;;;;;;;;;5099618;27;20475;-74
2022/05/21 03:11:52;;;;;;;1999.90;999.90;;;;;;;;;;5098294;27;20404;-74
2022/05/21 03:14:20;;;;;;;1999.90;999.90;;;;;;;;;;5097133;27;21466;-74
2022/05/21 03:16:47;;;;;;;1999.90;999.90;;;;;;;;;;5095212;27;20443;-74
2022/05/21 03:19:16;;;;;;;1999.90;999.90;;;;;;;;;;5098385;27;20449;-74
2022/05/21 03:21:44;;;;;;;1999.90;999.90;;;;;;;;;;5098783;27;20486;-74
2022/05/21 03:24:12;;;;;;;1999.90;999.90;;;;;;;;;;5096977;27;20478;-74
2022/05/21 03:26:40;;;;;;;1999.90;999.90;;;;;;;;;;5093620;27;20403;-74
2022/05/21 03:29:07;;;;;;;1999.90;999.90;;;;;;;;;;5097344;27;20572;-74
2022/05/21 03:31:35;;;;;;;1999.90;999.90;;;;;;;;;;5098498;27;20537;-73
2022/05/21 03:34:02;;;;;;;1999.90;999.90;;;;;;;;;;5094454;27;20537;-75
2022/05/21 03:36:32;;;;;;;1999.90;999.90;;;;;;;;;;5098880;27;20427;-74
2022/05/21 03:38:59;;;;;;;1999.90;999.90;;;;;;;;;;5096189;27;20494;-76
2022/05/21 03:41:27;;;;;;;1999.90;999.90;;;;;;;;;;5096975;27;20497;-74
2022/05/21 03:43:55;;;;;;;1999.90;999.90;;;;;;;;;;5096314;27;20395;-75
2022/05/21 03:46:22;;;;;;;1999.90;999.90;;;;;;;;;;5096344;27;20508;-74
2022/05/21 03:48:50;;;;;;;1999.90;999.90;;;;;;;;;;5098276;27;20422;-73
2022/05/21 03:51:18;;;;;;;1999.90;999.90;;;;;;;;;;5094513;27;20524;-74
2022/05/21 03:53:48;;;;;;;1999.90;999.90;;;;;;;;;;5090478;27;20848;-72
2022/05/21 03:56:15;;;;;;;1999.90;999.90;;;;;;;;;;5097718;27;20489;-75
2022/05/21 03:58:43;;;;;;;1999.90;999.90;;;;;;;;;;5097134;27;20552;-74
2022/05/21 04:01:11;;;;;;;1999.90;999.90;;;;;;;;;;5093637;27;20403;-72
2022/05/21 04:03:39;;;;;;;1999.90;999.90;;;;;;;;;;5093152;27;20407;-73
2022/05/21 04:06:07;;;;;;;1999.90;999.90;;;;;;;;;;5091263;27;20426;-74
2022/05/21 04:08:35;;;;;;;1999.90;999.90;;;;;;;;;;5095831;27;20403;-73
2022/05/21 04:11:04;;;;;;;1999.90;999.90;;;;;;;;;;5097921;27;20640;-74
2022/05/21 04:13:32;;;;;;;1999.90;999.90;;;;;;;;;;5096619;27;20788;-74
2022/05/21 04:16:00;;;;;;;1999.90;999.90;;;;;;;;;;5098590;27;20922;-74
2022/05/21 04:18:27;;;;;;;1999.90;999.90;;;;;;;;;;5097070;27;20406;-73
2022/05/21 04:20:55;;;;;;;1999.90;999.90;;;;;;;;;;5094490;27;20493;-74
2022/05/21 04:23:23;;;;;;;1999.90;999.90;;;;;;;;;;5091359;27;20502;-73
2022/05/21 04:25:50;;;;;;;1999.90;999.90;;;;;;;;;;5091011;27;20390;-74
2022/05/21 04:28:19;;;;;;;1999.90;999.90;;;;;;;;;;5093168;27;20406;-74
2022/05/21 04:30:47;;;;;;;1999.90;999.90;;;;;;;;;;5096078;27;20395;-74
2022/05/21 04:33:14;;;;;;;1999.90;999.90;;;;;;;;;;5092247;27;20446;-74
2022/05/21 04:38:27;;;;;;;1999.90;999.90;;;;;;;;;;5096434;27;20409;-74
2022/05/21 04:40:55;;;;;;;1999.90;999.90;;;;;;;;;;5093450;27;21016;-74
2022/05/21 04:43:24;;;;;;;1999.90;999.90;;;;;;;;;;5095543;27;20501;-75
2022/05/21 04:45:51;;;;;;;1999.90;999.90;;;;;;;;;;5096494;27;20403;-75
2022/05/21 04:48:19;;;;;;;1999.90;999.90;;;;;;;;;;5093573;27;20833;-75
2022/05/21 04:50:46;;;;;;;1999.90;999.90;;;;;;;;;;5098372;27;20889;-75
2022/05/21 04:53:14;;;;;;;1999.90;999.90;;;;;;;;;;5089309;27;20918;-75
2022/05/21 04:55:41;;;;;;;1999.90;999.90;;;;;;;;;;5085368;27;20469;-76
2022/05/21 04:58:09;;;;;;;1999.90;999.90;;;;;;;;;;5091672;27;20468;-75
2022/05/21 05:00:38;;;;;;;1999.90;999.90;;;;;;;;;;5093294;27;20961;-76
2022/05/21 05:03:10;;;;;;;1999.90;999.90;;;;;;;;;;5094016;27;20500;-76
2022/05/21 05:05:38;;;;;;;1999.90;999.90;;;;;;;;;;5094387;27;20514;-76
2022/05/21 05:08:07;;;;;;;1999.90;999.90;;;;;;;;;;5080782;27;20434;-76
2022/05/21 05:10:36;;;;;;;1999.90;999.90;;;;;;;;;;5093769;27;20427;-76
2022/05/21 05:13:03;;;;;;;1999.90;999.90;;;;;;;;;;5095370;27;21356;-76
2022/05/21 05:15:31;;;;;;;1999.90;999.90;;;;;;;;;;5093092;27;20486;-76
2022/05/21 05:18:01;;;;;;;1999.90;999.90;;;;;;;;;;5097946;27;20410;-76
2022/05/21 05:20:30;;;;;;;1999.90;999.90;;;;;;;;;;5099978;27;20448;-76
2022/05/21 05:22:58;;;;;;;1999.90;999.90;;;;;;;;;;5097153;27;20468;-75
2022/05/21 05:25:26;;;;;;;1999.90;999.90;;;;;;;;;;5095606;27;20508;-76
2022/05/21 05:27:53;;;;;;;1999.90;999.90;;;;;;;;;;5094388;27;20580;-76
2022/05/21 05:30:22;;;;;;;1999.90;999.90;;;;;;;;;;5081072;27;20399;-76
2022/05/21 05:32:49;;;;;;;1999.90;999.90;;;;;;;;;;5099899;27;20403;-76
2022/05/21 05:35:18;;;;;;;1999.90;999.90;;;;;;;;;;5096276;27;20427;-76
2022/05/21 05:37:46;;;;;;;1999.90;999.90;;;;;;;;;;5095819;27;20529;-76
2022/05/21 05:40:16;;;;;;;1999.90;999.90;;;;;;;;;;5097693;27;20470;-76
2022/05/21 05:42:44;;;;;;;1999.90;999.90;;;;;;;;;;5097270;27;20482;-76
2022/05/21 05:45:13;;;;;;;1999.90;999.90;;;;;;;;;;5100477;27;21013;-76
2022/05/21 05:47:40;;;;;;;1999.90;999.90;;;;;;;;;;5094504;27;20862;-76
2022/05/21 05:50:09;;;;;;;1999.90;999.90;;;;;;;;;;5097233;27;20398;-76
2022/05/21 05:52:38;;;;;;;1999.90;999.90;;;;;;;;;;5095576;27;20400;-76
2022/05/21 05:55:06;;;;;;;1999.90;999.90;;;;;;;;;;5095928;27;20408;-75
2022/05/21 05:57:33;;;;;;;1999.90;999.90;;;;;;;;;;5086841;27;20492;-75
2022/05/21 06:00:03;;;;;;;1999.90;999.90;;;;;;;;;;5089032;27;20399;-74
2022/05/21 06:05:24;;;;;;;1999.90;999.90;;;;;;;;;;5096955;27;20431;-74
2022/05/21 06:07:54;;;;;;;1999.90;999.90;;;;;;;;;;5081774;27;20430;-74
2022/05/21 06:10:22;;;;;;;1999.90;999.90;;;;;;;;;;5096927;27;20432;-74
2022/05/21 06:12:50;;;;;;;1999.90;999.90;;;;;;;;;;5098783;27;20514;-74
2022/05/21 06:15:18;;;;;;;1999.90;999.90;;;;;;;;;;5097413;27;20468;-76
2022/05/21 06:17:45;;;;;;;1999.90;999.90;;;;;;;;;;5094636;27;21989;-74
2022/05/21 06:20:15;;;;;;;1999.90;999.90;;;;;;;;;;5097043;27;21804;-73
2022/05/21 06:22:45;;;;;;;1999.90;999.90;;;;;;;;;;5095579;27;20893;-74
2022/05/21 06:25:17;;;;;;;1999.90;999.90;;;;;;;;;;5097153;27;20448;-74
2022/05/21 06:27:45;;;;;;;1999.90;999.90;;;;;;;;;;5093253;27;20407;-74
2022/05/21 06:30:13;;;;;;;1999.90;999.90;;;;;;;;;;5095485;27;20474;-73
2022/05/21 06:32:40;;;;;;;1999.90;999.90;;;;;;;;;;5097690;27;20396;-75
2022/05/21 06:35:08;;;;;;;1999.90;999.90;;;;;;;;;;5093959;27;20403;-74
2022/05/21 06:37:36;;;;;;;1999.90;999.90;;;;;;;;;;5095132;27;20415;-75
2022/05/21 06:40:04;;;;;;;1999.90;999.90;;;;;;;;;;5096974;27;20434;-74
2022/05/21 06:42:33;;;;;;;1999.90;999.90;;;;;;;;;;5098116;27;20405;-74
2022/05/21 06:45:02;;;;;;;1999.90;999.90;;;;;;;;;;5093781;27;20404;-74
2022/05/21 06:47:29;;;;;;;1999.90;999.90;;;;;;;;;;5098689;27;20423;-74
2022/05/21 06:49:58;;;;;;;1999.90;999.90;;;;;;;;;;5098080;27;20494;-74
2022/05/21 06:52:27;;;;;;;1999.90;999.90;;;;;;;;;;5097585;27;20448;-74
2022/05/21 06:54:55;;;;;;;1999.90;999.90;;;;;;;;;;5094425;27;21554;-74
2022/05/21 06:57:28;;;;;;;1999.90;999.90;;;;;;;;;;5097027;27;20387;-74
2022/05/21 06:59:57;;;;;;;1999.90;999.90;;;;;;;;;;5096932;27;20946;-74
2022/05/21 07:02:25;;;;;;;1999.90;999.90;;;;;;;;;;5087115;27;20789;-75
2022/05/21 07:07:43;;;;;;;1999.90;999.90;;;;;;;;;;5084904;27;20577;-75
2022/05/21 07:10:12;;;;;;;1999.90;999.90;;;;;;;;;;5091512;27;20481;-75
2022/05/21 07:12:40;;;;;;;1999.90;999.90;;;;;;;;;;5097368;27;20441;-74
2022/05/21 07:15:09;;;;;;;1999.90;999.90;;;;;;;;;;5099710;27;20400;-75
2022/05/21 07:17:37;;;;;;;1999.90;999.90;;;;;;;;;;5094916;27;20415;-75
2022/05/21 07:20:06;;;;;;;1999.90;999.90;;;;;;;;;;5095022;27;20479;-75
2022/05/21 07:22:34;;;;;;;1999.90;999.90;;;;;;;;;;5081140;27;20885;-75
2022/05/21 07:25:03;;;;;;;1999.90;999.90;;;;;;;;;;5098552;27;20491;-74
2022/05/21 07:27:31;;;;;;;1999.90;999.90;;;;;;;;;;5089557;27;20411;-74
2022/05/21 07:29:58;;;;;;;1999.90;999.90;;;;;;;;;;5097327;27;20464;-74
2022/05/21 07:32:27;;;;;;;1999.90;999.90;;;;;;;;;;5091226;27;20394;-74
2022/05/21 07:34:59;;;;;;;1999.90;999.90;;;;;;;;;;5097271;27;20513;-75
2022/05/21 07:37:26;;;;;;;1999.90;999.90;;;;;;;;;;5089262;27;20415;-75
2022/05/21 07:39:54;;;;;;;1999.90;999.90;;;;;;;;;;5092496;27;20861;-75
2022/05/21 07:42:22;;;;;;;1999.90;999.90;;;;;;;;;;5090580;27;20580;-76
2022/05/21 07:44:49;;;;;;;1999.90;999.90;;;;;;;;;;5095001;27;20410;-74
2022/05/21 07:47:17;;;;;;;1999.90;999.90;;;;;;;;;;5094373;27;20403;-75
2022/05/21 07:49:47;;;;;;;1999.90;999.90;;;;;;;;;;5097005;27;20391;-75
2022/05/21 07:52:14;;;;;;;1999.90;999.90;;;;;;;;;;5081027;27;20410;-75
2022/05/21 07:54:42;;;;;;;1999.90;999.90;;;;;;;;;;5096389;27;20429;-75
2022/05/21 07:57:09;;;;;;;1999.90;999.90;;;;;;;;;;5095649;27;20437;-75
2022/05/21 07:59:38;;;;;;;1999.90;999.90;;;;;;;;;;5096084;27;20399;-74
2022/05/21 08:02:08;;;;;;;1999.90;999.90;;;;;;;;;;5094087;27;20838;-75
2022/05/21 08:04:37;;;;;;;1999.90;999.90;;;;;;;;;;5095843;27;20391;-75
2022/05/21 08:07:05;;;;;;;1999.90;999.90;;;;;;;;;;5097648;27;20486;-75
2022/05/21 08:09:33;;;;;;;1999.90;999.90;;;;;;;;;;5100104;27;20514;-74
2022/05/21 08:12:01;;;;;;;1999.90;999.90;;;;;;;;;;5099408;27;21527;-74
2022/05/21 08:14:28;;;;;;;1999.90;999.90;;;;;;;;;;5097277;27;20396;-75
2022/05/21 08:16:56;;;;;;;1999.90;999.90;;;;;;;;;;5097455;27;20510;-74
2022/05/21 08:19:23;;;;;;;1999.90;999.90;;;;;;;;;;5095584;27;20399;-75
2022/05/21 08:21:51;;;;;;;1999.90;999.90;;;;;;;;;;5096445;27;20403;-75
2022/05/21 08:27:05;;;;;;;1999.90;999.90;;;;;;;;;;5083225;27;21714;-75
2022/05/21 08:29:34;;;;;;;1999.90;999.90;;;;;;;;;;5088615;27;20866;-75
2022/05/21 08:32:03;;;;;;;1999.90;999.90;;;;;;;;;;5097263;27;20543;-75
2022/05/21 08:34:31;;;;;;;1999.90;999.90;;;;;;;;;;5090404;27;20411;-75
2022/05/21 08:36:58;;;;;;;1999.90;999.90;;;;;;;;;;5085065;27;20453;-74
2022/05/21 08:39:27;;;;;;;1999.90;999.90;;;;;;;;;;5077128;27;20493;-74
2022/05/21 08:41:58;;;;;;;1999.90;999.90;;;;;;;;;;5087087;27;20906;-74
2022/05/21 08:44:31;;;;;;;1999.90;999.90;;;;;;;;;;5085752;27;21235;-78
2022/05/21 08:47:07;;;;;;;1999.90;999.90;;;;;;;;;;5070215;27;20494;-77
2022/05/21 08:49:36;;;;;;;1999.90;999.90;;;;;;;;;;5090100;27;20466;-78
2022/05/21 08:52:07;;;;;;;1999.90;999.90;;;;;;;;;;5078556;27;20404;-77
2022/05/21 08:54:39;;;;;;;1999.90;999.90;;;;;;;;;;5091249;27;20397;-77
2022/05/21 08:57:08;;;;;;;1999.90;999.90;;;;;;;;;;5084587;27;20407;-76
2022/05/21 08:59:37;;;;;;;1999.90;999.90;;;;;;;;;;5085478;27;20669;-76
2022/05/21 09:02:06;;;;;;;1999.90;999.90;;;;;;;;;;5089740;27;20421;-76
2022/05/21 09:04:33;;;;;;;1999.90;999.90;;;;;;;;;;5094253;27;20394;-76
2022/05/21 09:07:03;;;;;;;1999.90;999.90;;;;;;;;;;5069435;28;20482;-77
2022/05/21 09:09:37;;;;;;;1999.90;999.90;;;;;;;;;;5091165;27;20468;-76
2022/05/21 09:12:09;;;;;;;1999.90;999.90;;;;;;;;;;5097402;27;20399;-75
2022/05/21 09:14:41;;;;;;;1999.90;999.90;;;;;;;;;;5093282;27;21193;-75
2022/05/21 09:17:09;;;;;;;1999.90;999.90;;;;;;;;;;5092283;27;20430;-75
2022/05/21 09:19:40;;;;;;;1999.90;999.90;;;;;;;;;;5097314;27;20391;-75
2022/05/21 09:22:10;;;;;;;1999.90;999.90;;;;;;;;;;5097756;27;20395;-76
2022/05/21 09:24:58;;;;;;;1999.90;999.90;;;;;;;;;;5094652;27;20821;-77
2022/05/21 09:27:32;;;;;;;1999.90;999.90;;;;;;;;;;5077531;27;20415;-75
2022/05/21 09:30:17;;;;;;;1999.90;999.90;;;;;;;;;;5094629;27;20409;-76
2022/05/21 09:32:48;;;;;;;1999.90;999.90;;;;;;;;;;5094996;27;20418;-75
2022/05/21 09:35:17;;;;;;;1999.90;999.90;;;;;;;;;;5094099;27;21718;-74
2022/05/21 09:37:45;;;;;;;1999.90;999.90;;;;;;;;;;5095594;27;20410;-75
2022/05/21 09:40:24;;;;;;;1999.90;999.90;;;;;;;;;;5093452;27;21205;-74
2022/05/21 09:45:40;;;;;;;1999.90;999.90;;;;;;;;;;5093669;27;20411;-74
2022/05/21 09:48:16;;;;;;;1999.90;999.90;;;;;;;;;;5094044;27;21196;-74
2022/05/21 09:50:47;;;;;;;1999.90;999.90;;;;;;;;;;5092141;27;20770;-76
2022/05/21 09:53:27;;;;;;;1999.90;999.90;;;;;;;;;;5094916;27;20811;-76
2022/05/21 09:55:58;;;;;;;1999.90;999.90;;;;;;;;;;5096772;27;20470;-75
2022/05/21 09:58:27;;;;;;;1999.90;999.90;;;;;;;;;;5096049;27;20990;-75
2022/05/21 10:00:55;;;;;;;1999.90;999.90;;;;;;;;;;5092288;27;20501;-75
2022/05/21 10:03:36;;;;;;;1999.90;999.90;;;;;;;;;;5098245;27;20484;-75
2022/05/21 10:06:05;;;;;;;1999.90;999.90;;;;;;;;;;5100335;27;20388;-75
2022/05/21 10:11:23;;;;;;;1999.90;999.90;;;;;;;;;;5102453;27;20943;-74
2022/05/21 10:13:55;;;;;;;1999.90;999.90;;;;;;;;;;5102490;27;21852;-76
2022/05/21 10:16:27;;;;;;;1999.90;999.90;;;;;;;;;;5100694;27;21011;-75
2022/05/21 10:19:00;;;;;;;1999.90;999.90;;;;;;;;;;5101800;27;20468;-75
2022/05/21 10:21:35;;;;;;;1999.90;999.90;;;;;;;;;;5097540;27;20395;-71
2022/05/21 10:24:05;;;;;;;1999.90;999.90;;;;;;;;;;5096116;27;20395;-73
2022/05/21 10:26:41;;;;;;;1999.90;999.90;;;;;;;;;;5087245;27;20385;-71
2022/05/21 10:29:20;;;;;;;1999.90;999.90;;;;;;;;;;5094418;27;20908;-71
2022/05/21 10:31:51;;;;;;;1999.90;999.90;;;;;;;;;;5094369;27;20987;-71
2022/05/21 10:34:26;;;;;;;1999.90;999.90;;;;;;;;;;5094241;27;20387;-71
2022/05/21 10:36:59;;;;;;;1999.90;999.90;;;;;;;;;;5094441;27;20434;-72
2022/05/21 10:39:33;;;;;;;1999.90;999.90;;;;;;;;;;5099648;27;20407;-72
2022/05/21 10:42:12;;;;;;;1999.90;999.90;;;;;;;;;;5103494;27;20488;-73
2022/05/21 10:44:48;;;;;;;1999.90;999.90;;;;;;;;;;5102256;27;20428;-74
2022/05/21 10:47:23;;;;;;;1999.90;999.90;;;;;;;;;;5099929;27;20406;-74
2022/05/21 10:50:00;;;;;;;1999.90;999.90;;;;;;;;;;5098767;27;20399;-73
2022/05/21 10:52:32;;;;;;;1999.90;999.90;;;;;;;;;;5099932;27;20237;-73
2022/05/21 10:55:08;;;;;;;1999.90;999.90;;;;;;;;;;5088376;27;20256;-74
2022/05/21 10:57:42;;;;;;;1999.90;999.90;;;;;;;;;;5089971;27;20227;-73
2022/05/21 11:00:14;;;;;;;1999.90;999.90;;;;;;;;;;5089263;27;21068;-73
2022/05/21 11:02:55;;;;;;;1999.90;999.90;;;;;;;;;;5095160;27;20254;-73
2022/05/21 11:05:33;;;;;;;1999.90;999.90;;;;;;;;;;5087011;27;20415;-74
2022/05/21 11:08:05;;;;;;;1999.90;999.90;;;;;;;;;;5095666;27;20383;-73
2022/05/21 11:10:36;;;;;;;1999.90;999.90;;;;;;;;;;5068266;28;20391;-73
2022/05/21 11:13:06;;;;;;;1999.90;999.90;;;;;;;;;;5071988;27;21248;-72
2022/05/21 11:15:39;;;;;;;1999.90;999.90;;;;;;;;;;5095783;27;20381;-73
2022/05/21 11:18:13;;;;;;;1999.90;999.90;;;;;;;;;;5077981;27;20390;-73
2022/05/21 11:20:43;;;;;;;1999.90;999.90;;;;;;;;;;5098451;27;21614;-70
2022/05/21 11:23:12;;;;;;;1999.90;999.90;;;;;;;;;;5095727;27;20383;-72
2022/05/21 11:25:43;;;;;;;1999.90;999.90;;;;;;;;;;5111877;27;20403;-73
2022/05/21 11:28:18;;;;;;;1999.90;999.90;;;;;;;;;;5094708;27;20909;-72
2022/05/21 11:30:47;;;;;;;1999.90;999.90;;;;;;;;;;5093861;27;20414;-72
2022/05/21 11:39:02;;;;;;;1999.90;999.90;;;;;;;;;;5034327;27;21180;-71
2022/05/21 11:41:48;;;;;;;1999.90;999.90;;;;;;;;;;5094589;27;20423;-72
2022/05/21 11:47:17;;;;;;;1999.90;999.90;;;;;;;;;;5096370;27;20398;-73
2022/05/21 11:49:49;;;;;;;1999.90;999.90;;;;;;;;;;5077285;28;20392;-73
2022/05/21 11:52:35;;;;;;;1999.90;999.90;;;;;;;;;;5088660;27;20459;-72
2022/05/21 11:55:13;;;;;;;1999.90;999.90;;;;;;;;;;5094230;27;20403;-73
2022/05/21 11:57:48;;;;;;;1999.90;999.90;;;;;;;;;;5095233;27;20383;-72
2022/05/21 12:00:30;;;;;;;1999.90;999.90;;;;;;;;;;5093951;27;20387;-73
2022/05/21 12:03:22;;;;;;;1999.90;999.90;;;;;;;;;;5114063;27;20391;-72
2022/05/21 12:06:12;;;;;;;1999.90;999.90;;;;;;;;;;5089061;27;20420;-72
2022/05/21 12:08:46;;;;;;;1999.90;999.90;;;;;;;;;;5091243;27;20504;-73
2022/05/21 12:11:29;;;;;;;1999.90;999.90;;;;;;;;;;5086653;27;21008;-72
2022/05/21 12:14:04;;;;;;;1999.90;999.90;;;;;;;;;;5078926;28;20900;-72
2022/05/21 12:16:43;;;;;;;1999.90;999.90;;;;;;;;;;5096355;27;20899;-73
2022/05/21 12:19:10;;;;;;;1999.90;999.90;;;;;;;;;;5096753;27;20513;-72
2022/05/21 12:21:57;;;;;;;1999.90;999.90;;;;;;;;;;5093919;27;20478;-73
2022/05/21 12:24:40;;;;;;;1999.90;999.90;;;;;;;;;;5093043;27;20403;-72
2022/05/21 12:27:21;;;;;;;1999.90;999.90;;;;;;;;;;5089054;27;20391;-72
2022/05/21 12:29:50;;;;;;;1999.90;999.90;;;;;;;;;;5087115;27;20395;-73
2022/05/21 12:32:23;;;;;;;1999.90;999.90;;;;;;;;;;5093603;27;20390;-73
2022/05/21 12:35:14;;;;;;;1999.90;999.90;;;;;;;;;;5097103;27;20498;-73
2022/05/21 12:37:43;;;;;;;1999.90;999.90;;;;;;;;;;5091218;27;20388;-72
2022/05/21 12:40:16;;;;;;;1999.90;999.90;;;;;;;;;;5099679;27;20496;-72
2022/05/21 12:42:46;;;;;;;1999.90;999.90;;;;;;;;;;5097992;27;20879;-72
2022/05/21 12:45:29;;;;;;;1999.90;999.90;;;;;;;;;;5098069;27;20792;-73
2022/05/21 12:48:04;;;;;;;1999.90;999.90;;;;;;;;;;5096252;27;32420;-73
2022/05/21 12:50:32;;;;;;;1999.90;999.90;;;;;;;;;;5095702;27;20457;-72
2022/05/21 12:53:00;;;;;;;1999.90;999.90;;;;;;;;;;5097321;27;20411;-72
2022/05/21 12:55:30;;;;;;;1999.90;999.90;;;;;;;;;;5102666;27;20482;-70
2022/05/21 12:57:58;;;;;;;1999.90;999.90;;;;;;;;;;5100554;27;20423;-72
2022/05/21 13:00:28;;;;;;;1999.90;999.90;;;;;;;;;;5083244;27;20427;-71
2022/05/21 13:02:57;;;;;;;1999.90;999.90;;;;;;;;;;5097005;27;21282;-71
2022/05/21 13:05:26;;;;;;;1999.90;999.90;;;;;;;;;;5097102;27;20438;-71
2022/05/21 13:07:55;;;;;;;1999.90;999.90;;;;;;;;;;5093645;27;20387;-71
2022/05/21 13:10:24;;;;;;;1999.90;999.90;;;;;;;;;;5104124;27;21891;-70
2022/05/21 13:12:54;;;;;;;1999.90;999.90;;;;;;;;;;5107551;27;20464;-72
2022/05/21 13:15:25;;;;;;;1999.90;999.90;;;;;;;;;;5100316;27;20422;-71
2022/05/21 13:17:58;;;;;;;1999.90;999.90;;;;;;;;;;5089471;27;20371;-72
2022/05/21 13:20:31;;;;;;;1999.90;999.90;;;;;;;;;;5104171;27;20387;-73
2022/05/21 13:23:19;;;;;;;1999.90;999.90;;;;;;;;;;5076941;27;20544;-72
2022/05/21 13:25:50;;;;;;;1999.90;999.90;;;;;;;;;;5100936;27;20412;-73
2022/05/21 13:28:20;;;;;;;1999.90;999.90;;;;;;;;;;5097997;27;20397;-71
2022/05/21 13:30:49;;;;;;;1999.90;999.90;;;;;;;;;;5101855;27;20396;-73
2022/05/21 13:33:27;;;;;;;1999.90;999.90;;;;;;;;;;5100698;27;20399;-71
2022/05/21 13:36:00;;;;;;;1999.90;999.90;;;;;;;;;;5100962;27;20405;-71
2022/05/21 13:38:30;;;;;;;1999.90;999.90;;;;;;;;;;5103220;27;20514;-71
2022/05/21 13:40:58;;;;;;;1999.90;999.90;;;;;;;;;;5098932;27;21173;-71
2022/05/21 13:43:32;;;;;;;1999.90;999.90;;;;;;;;;;5096903;27;20756;-71
2022/05/21 13:46:01;;;;;;;1999.90;999.90;;;;;;;;;;5095227;27;20513;-73
2022/05/21 13:48:34;;;;;;;1999.90;999.90;;;;;;;;;;5100057;27;20414;-72
2022/05/21 13:51:02;;;;;;;1999.90;999.90;;;;;;;;;;5102018;27;20384;-72
2022/05/21 13:53:31;;;;;;;1999.90;999.90;;;;;;;;;;5096829;27;20383;-71
2022/05/21 13:56:00;;;;;;;1999.90;999.90;;;;;;;;;;5104476;27;20404;-71
2022/05/21 13:58:32;;;;;;;1999.90;999.90;;;;;;;;;;5106329;27;20395;-72
2022/05/21 14:01:00;;;;;;;1999.90;999.90;;;;;;;;;;5104974;27;20393;-72
2022/05/21 14:03:29;;;;;;;1999.90;999.90;;;;;;;;;;5100988;27;20752;-72
2022/05/21 14:05:57;;;;;;;1999.90;999.90;;;;;;;;;;5110974;27;20405;-73
2022/05/21 14:08:30;;;;;;;1999.90;999.90;;;;;;;;;;5110643;27;20413;-73
2022/05/21 14:10:59;;;;;;;1999.90;999.90;;;;;;;;;;5100157;27;20462;-73
2022/05/21 14:13:41;;;;;;;1999.90;999.90;;;;;;;;;;5104195;27;20378;-73
2022/05/21 14:16:10;;;;;;;1999.90;999.90;;;;;;;;;;5102293;27;20397;-73
2022/05/21 14:18:40;;;;;;;1999.90;999.90;;;;;;;;;;5098149;27;20842;-73
2022/05/21 14:21:19;;;;;;;1999.90;999.90;;;;;;;;;;5105553;27;20472;-73
2022/05/21 14:23:47;;;;;;;1999.90;999.90;;;;;;;;;;5096462;27;20514;-73
2022/05/21 14:26:22;;;;;;;1999.90;999.90;;;;;;;;;;5100470;27;20394;-73
2022/05/21 14:28:51;;;;;;;1999.90;999.90;;;;;;;;;;5110083;27;20383;-74
2022/05/21 14:31:26;;;;;;;1999.90;999.90;;;;;;;;;;5104359;27;20476;-72